SNOW

Not for real navigation. The accuracy of this data is not assured See disclaimer for more information



ICAO NAME COUNTRY WIND Kt GUST Kt VIS m TEMP/DEW C BARO METAR
UHWW Vladivostok Russia 12 21 350 -5/-5 29.50 UHWW 172200Z 33012G21KT 0350 R25L/0600N +SHSN VV005 M05/M05 Q0999 R25L/690245 TEMPO 0400 +SHSN BLSN
UHBB 4 0 500 -13/-14 29.71 UHBB 172200Z 35004KT 0500 0350S R36/0800D +SN DRSN VV003 M13/M14 Q1006 R36/493037 NOSIG RMK QBB090 Q
OIFM Esfahan Iran 0 0 800 0/-1 30.22 OIFM 172200Z 00000KT 0800 R25/2000U -SN SCT035 OVC090 00/M01 Q1023 A3022
CYYU Kapuskasing, Ont. Canada 10 0 1200 -1/-2 29.88 CYYU 172200Z 18010KT 0.75SM -SN OVC006 M01/M02 A2988 RMK SN6SC2 VIS VRB 1/2-1 SLP135
CYKO Akulivik Airport Canada 17 0 1200 -4/-6 29.51 CYKO 172200Z CCA 30017KT 0.75SM -SHSN BLSN OVC009 M04/M06 A2951 RMK SN7SC1 SN CVR MUCH LOOSE LAST ST

Show more